createdAt,value
2018-06-19T00:02:05.469Z,19.24
2018-06-19T00:05:30.937Z,19.47
2018-06-19T00:08:55.556Z,19.48
2018-06-19T00:12:20.197Z,19.61
2018-06-19T00:15:44.898Z,19.41
2018-06-19T00:19:10.118Z,19.63
2018-06-19T00:22:34.736Z,19.65
2018-06-19T00:25:59.428Z,19.51
2018-06-19T00:29:23.773Z,19.46
2018-06-19T00:32:48.468Z,19.55
2018-06-19T00:36:13.085Z,19.48
2018-06-19T00:39:37.763Z,19.23
2018-06-19T00:43:02.466Z,19.13
2018-06-19T00:46:28.517Z,18.97
2018-06-19T00:49:53.128Z,18.94
2018-06-19T00:53:17.800Z,18.79
2018-06-19T00:56:54.131Z,18.83
2018-06-19T01:00:18.732Z,18.83
2018-06-19T01:03:43.317Z,18.60
2018-06-19T01:07:08.246Z,18.67
2018-06-19T01:10:32.902Z,18.58
2018-06-19T01:13:57.507Z,18.70
2018-06-19T01:17:22.108Z,18.58
2018-06-19T01:20:46.880Z,18.60
2018-06-19T01:24:11.526Z,18.55
2018-06-19T01:27:35.814Z,18.49
2018-06-19T01:31:00.427Z,18.51
2018-06-19T01:34:26.408Z,18.54
2018-06-19T01:37:50.977Z,18.30
2018-06-19T01:41:15.554Z,18.18
2018-06-19T01:44:40.201Z,18.28
2018-06-19T01:48:04.840Z,18.27
2018-06-19T01:51:29.430Z,18.09
2018-06-19T01:54:54.012Z,18.15
2018-06-19T01:58:18.583Z,18.04
2018-06-19T02:01:43.157Z,18.21
2018-06-19T02:05:07.795Z,18.19
2018-06-19T02:08:32.429Z,18.12
2018-06-19T02:11:57.076Z,18.13
2018-06-19T02:15:21.685Z,18.28
2018-06-19T02:18:46.316Z,18.07
2018-06-19T02:22:11.028Z,17.91
2018-06-19T02:25:35.323Z,18.10
2018-06-19T02:29:00.039Z,17.95
2018-06-19T02:32:24.660Z,17.92
2018-06-19T02:35:49.394Z,18.09
2018-06-19T02:39:14.196Z,17.78
2018-06-19T02:42:38.890Z,17.81
2018-06-19T02:46:03.544Z,17.64
2018-06-19T02:49:27.835Z,17.68
2018-06-19T02:52:52.402Z,17.74
2018-06-19T02:56:17.025Z,17.74
2018-06-19T02:59:41.618Z,17.73
2018-06-19T03:03:06.340Z,17.58
2018-06-19T03:06:30.978Z,17.58
2018-06-19T03:09:55.855Z,17.66
2018-06-19T03:13:20.436Z,17.64
2018-06-19T03:16:45.037Z,17.56
2018-06-19T03:20:09.730Z,17.58
2018-06-19T03:23:34.330Z,17.61
2018-06-19T03:26:58.649Z,17.38
2018-06-19T03:30:23.394Z,17.51
2018-06-19T03:33:47.894Z,17.31
2018-06-19T03:37:12.175Z,17.40
2018-06-19T03:40:36.738Z,17.35
2018-06-19T03:44:01.316Z,17.37
2018-06-19T03:47:26.018Z,17.33
2018-06-19T03:50:50.615Z,17.34
2018-06-19T03:54:15.217Z,17.43
2018-06-19T03:57:39.860Z,17.44
2018-06-19T04:01:04.556Z,17.55
2018-06-19T04:04:29.246Z,17.57
2018-06-19T04:07:53.715Z,17.48
2018-06-19T04:11:18.377Z,17.54
2018-06-19T04:14:43.049Z,17.59
2018-06-19T04:18:07.687Z,17.53
2018-06-19T04:21:32.411Z,17.76
2018-06-19T04:24:57.652Z,17.84
2018-06-19T04:28:22.315Z,17.60
2018-06-19T04:31:46.911Z,17.69
2018-06-19T04:35:11.514Z,17.85
2018-06-19T04:38:36.178Z,17.70
2018-06-19T04:42:00.825Z,17.84
2018-06-19T04:45:25.456Z,17.87
2018-06-19T04:48:50.078Z,17.78
2018-06-19T04:52:14.681Z,17.94
2018-06-19T04:55:39.311Z,17.81
2018-06-19T04:59:03.975Z,17.96
2018-06-19T05:02:28.631Z,18.12
2018-06-19T05:05:53.307Z,17.97
2018-06-19T05:09:17.935Z,17.99
2018-06-19T05:12:42.527Z,18.00
2018-06-19T05:16:06.805Z,18.16
2018-06-19T05:19:31.555Z,18.22
2018-06-19T05:22:56.163Z,18.39
2018-06-19T05:26:20.762Z,18.61
2018-06-19T05:29:45.386Z,18.60
2018-06-19T05:33:09.986Z,18.49
2018-06-19T05:36:34.671Z,18.77
2018-06-19T05:39:59.354Z,18.87
2018-06-19T05:43:23.988Z,18.75
2018-06-19T05:46:48.637Z,18.97
2018-06-19T05:50:13.271Z,18.90
2018-06-19T05:53:37.562Z,19.00
2018-06-19T05:57:01.957Z,18.85
2018-06-19T06:00:26.232Z,19.26
2018-06-19T06:03:50.928Z,19.42
2018-06-19T06:07:15.641Z,19.12
2018-06-19T06:10:40.276Z,19.21
2018-06-19T06:14:04.547Z,19.20
2018-06-19T06:17:29.160Z,19.47
2018-06-19T06:20:53.738Z,19.51
2018-06-19T06:24:18.383Z,19.51
2018-06-19T06:27:42.998Z,19.53
2018-06-19T06:31:07.406Z,19.51
2018-06-19T06:34:32.054Z,19.31
2018-06-19T06:37:56.862Z,19.41
2018-06-19T06:41:21.480Z,19.59
2018-06-19T06:44:46.143Z,19.83
2018-06-19T06:48:10.863Z,19.99
2018-06-19T06:51:35.576Z,20.07
2018-06-19T06:55:00.229Z,20.13
2018-06-19T06:58:25.116Z,20.37
2018-06-19T07:01:49.810Z,20.47
2018-06-19T07:05:14.509Z,20.78
2018-06-19T07:08:39.103Z,20.71
2018-06-19T07:12:03.730Z,20.92
2018-06-19T07:15:28.325Z,20.99
2018-06-19T07:18:53.023Z,20.53
2018-06-19T07:22:17.645Z,20.70
2018-06-19T07:25:42.267Z,20.95
2018-06-19T07:29:06.938Z,21.13
2018-06-19T07:32:31.558Z,21.19
2018-06-19T07:35:56.222Z,21.43
2018-06-19T07:39:20.866Z,21.73
2018-06-19T07:42:45.533Z,21.74
2018-06-19T07:46:09.886Z,21.72
2018-06-19T07:49:34.508Z,21.60
2018-06-19T07:52:58.780Z,21.80
2018-06-19T07:56:23.392Z,22.02
2018-06-19T07:59:48.110Z,22.43
2018-06-19T08:03:12.783Z,21.77
2018-06-19T08:06:37.336Z,22.41
2018-06-19T08:10:01.938Z,22.54
2018-06-19T08:13:26.590Z,22.91
2018-06-19T08:16:50.970Z,23.21
2018-06-19T08:20:15.672Z,22.40
2018-06-19T08:23:40.466Z,22.90
2018-06-19T08:27:05.163Z,22.93
2018-06-19T08:30:29.917Z,22.72
2018-06-19T08:33:55.381Z,22.40
2018-06-19T08:37:26.424Z,22.96
2018-06-19T08:40:52.657Z,22.95
2018-06-19T08:44:18.408Z,22.92
2018-06-19T08:47:43.966Z,23.02
2018-06-19T08:51:09.373Z,23.13
2018-06-19T08:54:35.132Z,22.90
2018-06-19T08:58:00.692Z,22.80
2018-06-19T09:01:28.932Z,23.36
2018-06-19T09:04:54.171Z,23.85
2018-06-19T09:08:21.710Z,24.73
2018-06-19T09:11:47.264Z,24.91
2018-06-19T09:15:16.265Z,24.59
2018-06-19T09:18:45.996Z,24.82
2018-06-19T09:22:12.137Z,24.56
2018-06-19T09:25:36.831Z,24.08
2018-06-19T09:29:01.511Z,23.73
2018-06-19T09:32:26.277Z,24.02
2018-06-19T09:35:50.958Z,23.76
2018-06-19T09:39:15.668Z,23.70
2018-06-19T09:42:40.432Z,23.79
2018-06-19T09:46:05.186Z,24.36
2018-06-19T09:49:29.842Z,24.39
2018-06-19T09:52:54.528Z,24.26
2018-06-19T09:56:19.534Z,24.04
2018-06-19T09:59:44.424Z,24.50
2018-06-19T10:03:09.288Z,24.82
2018-06-19T10:06:33.925Z,24.72
2018-06-19T10:09:58.213Z,24.83
2018-06-19T10:13:22.980Z,24.61
2018-06-19T10:16:47.373Z,25.40
2018-06-19T10:20:12.059Z,25.22
2018-06-19T10:25:05.703Z,24.46
2018-06-19T10:28:30.345Z,24.44
2018-06-19T10:31:54.997Z,24.40
2018-06-19T10:35:19.618Z,24.32
2018-06-19T10:38:44.330Z,24.48
2018-06-19T10:42:08.974Z,24.32
2018-06-19T10:45:35.176Z,25.17
2018-06-19T10:48:59.867Z,25.23
2018-06-19T10:52:24.552Z,25.62
2018-06-19T10:55:49.143Z,26.25
2018-06-19T10:59:13.732Z,26.21
2018-06-19T11:02:38.404Z,26.10
2018-06-19T11:06:03.064Z,25.78
2018-06-19T11:09:27.831Z,24.89
2018-06-19T11:12:52.430Z,25.00
2018-06-19T11:16:17.110Z,25.30
2018-06-19T11:19:41.753Z,25.46
2018-06-19T11:23:06.429Z,25.38
2018-06-19T11:26:31.084Z,25.74
2018-06-19T11:29:55.748Z,25.93
2018-06-19T11:33:20.468Z,26.09
2018-06-19T11:36:45.134Z,25.07
2018-06-19T11:40:09.828Z,25.14
2018-06-19T11:43:34.434Z,25.59
2018-06-19T11:46:59.298Z,25.97
2018-06-19T11:50:23.960Z,25.30
2018-06-19T11:53:48.574Z,25.13
2018-06-19T11:57:13.202Z,25.02
2018-06-19T12:00:37.986Z,25.57
2018-06-19T12:04:02.253Z,25.92
2018-06-19T12:07:30.697Z,26.26
2018-06-19T12:10:55.312Z,26.81
2018-06-19T12:14:19.929Z,27.68
2018-06-19T12:17:44.224Z,26.32
2018-06-19T12:21:08.531Z,26.73
2018-06-19T12:24:33.120Z,26.65
2018-06-19T12:27:57.404Z,26.23
2018-06-19T12:31:21.997Z,26.42
2018-06-19T12:34:46.705Z,26.49
2018-06-19T12:38:11.307Z,27.30
2018-06-19T12:41:42.774Z,26.82
2018-06-19T12:45:07.278Z,26.82
2018-06-19T12:48:31.890Z,26.63
2018-06-19T12:52:13.887Z,26.84
2018-06-19T12:55:55.871Z,27.25
2018-06-19T12:59:20.510Z,26.94
2018-06-19T13:04:01.977Z,27.45
2018-06-19T13:07:27.679Z,27.23
2018-06-19T13:10:52.501Z,27.27
2018-06-19T13:14:34.180Z,27.39
2018-06-19T13:18:16.081Z,27.86
2018-06-19T13:21:40.872Z,27.56
2018-06-19T13:25:05.540Z,27.25
2018-06-19T13:29:52.568Z,27.67
2018-06-19T13:33:17.248Z,27.98
2018-06-19T13:36:43.136Z,28.53
2018-06-19T13:41:27.003Z,27.99
2018-06-19T13:45:00.462Z,28.50
2018-06-19T13:48:24.790Z,27.74
2018-06-19T13:51:49.440Z,27.75
2018-06-19T13:57:40.680Z,28.03
2018-06-19T14:01:05.499Z,27.65
2018-06-19T14:04:30.276Z,28.26
2018-06-19T14:08:16.304Z,28.26
2018-06-19T14:12:03.467Z,28.46
2018-06-19T14:15:29.694Z,28.42
2018-06-19T14:18:54.376Z,27.99
2018-06-19T14:22:18.992Z,27.84
2018-06-19T14:25:43.240Z,28.39
2018-06-19T14:29:07.945Z,27.83
2018-06-19T14:32:32.560Z,28.11
2018-06-19T14:35:57.232Z,29.20
2018-06-19T14:39:22.017Z,28.87
2018-06-19T14:42:46.312Z,28.56
2018-06-19T14:46:10.956Z,29.05
2018-06-19T14:49:35.603Z,29.45
2018-06-19T14:52:59.922Z,29.40
2018-06-19T14:56:24.494Z,28.89
2018-06-19T14:59:49.135Z,29.21
2018-06-19T15:03:13.783Z,29.11
2018-06-19T15:06:38.427Z,29.36
2018-06-19T15:10:03.159Z,29.92
2018-06-19T15:13:27.826Z,30.18
2018-06-19T15:16:52.538Z,29.50
2018-06-19T15:20:17.040Z,29.89
2018-06-19T15:23:41.321Z,29.53
2018-06-19T15:27:05.996Z,30.19
2018-06-19T15:30:30.379Z,30.73
2018-06-19T15:33:55.133Z,30.79
2018-06-19T15:37:19.965Z,30.36
2018-06-19T15:40:45.159Z,30.07
2018-06-19T15:44:09.882Z,29.87
2018-06-19T15:47:34.597Z,30.57
2018-06-19T15:50:58.938Z,30.37
2018-06-19T15:54:23.950Z,30.56
2018-06-19T15:57:48.604Z,30.81
2018-06-19T16:01:13.297Z,31.05
2018-06-19T16:04:37.947Z,31.25
2018-06-19T16:08:08.080Z,30.92
2018-06-19T16:11:32.718Z,31.79
2018-06-19T16:14:57.484Z,31.78
2018-06-19T16:18:22.185Z,31.89
2018-06-19T16:21:46.886Z,30.68
2018-06-19T16:25:11.750Z,29.86
2018-06-19T16:28:36.378Z,30.93
2018-06-19T16:32:01.009Z,31.27
2018-06-19T16:35:25.378Z,31.14
2018-06-19T16:38:50.050Z,31.14
2018-06-19T16:42:14.747Z,30.95
2018-06-19T16:45:39.396Z,31.39
2018-06-19T16:49:04.174Z,30.74
2018-06-19T16:52:28.975Z,30.25
2018-06-19T16:55:58.769Z,30.36
2018-06-19T16:59:24.031Z,30.57
2018-06-19T17:02:51.292Z,31.06
2018-06-19T17:06:17.700Z,31.48
2018-06-19T17:09:45.159Z,32.12
2018-06-19T17:13:22.416Z,30.72
2018-06-19T17:16:47.304Z,31.22
2018-06-19T17:20:15.311Z,31.17
2018-06-19T17:23:41.686Z,30.62
2018-06-19T17:27:08.018Z,31.50
2018-06-19T17:30:44.268Z,31.06
2018-06-19T17:34:09.313Z,31.36
2018-06-19T17:37:34.065Z,31.15
2018-06-19T17:40:59.621Z,30.86
2018-06-19T17:44:25.076Z,31.07
2018-06-19T17:47:50.669Z,31.48
2018-06-19T17:51:15.407Z,31.46
2018-06-19T17:54:40.997Z,31.32
2018-06-19T17:58:05.863Z,31.34
2018-06-19T18:01:31.457Z,30.60
2018-06-19T18:04:55.856Z,30.43
2018-06-19T18:08:22.812Z,30.62
2018-06-19T18:11:47.543Z,30.44
2018-06-19T18:15:12.484Z,29.89
2018-06-19T18:18:38.187Z,30.79
2018-06-19T18:22:03.038Z,30.36
2018-06-19T18:25:27.915Z,30.43
2018-06-19T18:28:53.575Z,30.07
2018-06-19T18:32:19.308Z,29.95
2018-06-19T18:35:44.868Z,29.30
2018-06-19T18:39:10.869Z,28.77
2018-06-19T18:42:35.704Z,28.21
2018-06-19T18:46:01.319Z,27.93
2018-06-19T18:49:26.609Z,27.62
2018-06-19T18:52:51.428Z,27.61
2018-06-19T18:56:16.724Z,27.28
2018-06-19T18:59:42.164Z,26.97
2018-06-19T19:03:08.102Z,26.80
2018-06-19T19:06:33.709Z,26.61
2018-06-19T19:10:04.293Z,26.32
2018-06-19T19:13:29.604Z,26.22
2018-06-19T19:16:59.476Z,26.36
2018-06-19T19:20:24.282Z,26.10
2018-06-19T19:23:50.039Z,25.91
2018-06-19T19:27:20.763Z,25.68
2018-06-19T19:30:45.519Z,25.56
2018-06-19T19:34:09.923Z,25.38
2018-06-19T19:37:40.908Z,25.39
2018-06-19T19:41:05.731Z,25.14
2018-06-19T19:44:30.442Z,24.98
2018-06-19T19:48:00.554Z,24.85
2018-06-19T19:51:25.662Z,24.81
2018-06-19T19:54:50.382Z,24.76
2018-06-19T19:58:22.756Z,24.51
2018-06-19T20:01:47.661Z,24.36
2018-06-19T20:06:00.611Z,24.26
2018-06-19T20:09:26.031Z,24.30
2018-06-19T20:21:49.527Z,24.15
2018-06-19T20:25:14.217Z,23.70
2018-06-19T20:28:38.918Z,23.83
2018-06-19T20:32:03.948Z,23.70
2018-06-19T20:35:28.941Z,23.58
2018-06-19T20:38:53.650Z,23.63
2018-06-19T20:42:18.393Z,23.68
2018-06-19T20:45:43.088Z,23.46
2018-06-19T20:49:07.416Z,23.40
2018-06-19T20:52:32.045Z,23.43
2018-06-19T20:55:56.797Z,23.33
2018-06-19T20:59:21.444Z,23.38
2018-06-19T21:02:46.053Z,23.24
2018-06-19T21:06:10.511Z,23.36
2018-06-19T21:09:34.850Z,23.35
2018-06-19T21:12:59.520Z,23.29
2018-06-19T21:16:24.219Z,23.09
2018-06-19T21:19:48.708Z,23.12
2018-06-19T21:23:13.504Z,23.34
2018-06-19T21:26:38.067Z,23.08
2018-06-19T21:30:02.731Z,22.95
2018-06-19T21:33:27.537Z,22.73
2018-06-19T21:36:52.211Z,22.85
2018-06-19T21:40:16.609Z,22.61
2018-06-19T21:43:41.212Z,22.29
2018-06-19T21:47:05.820Z,21.96
2018-06-19T21:50:30.435Z,22.42
2018-06-19T21:53:55.097Z,22.35
2018-06-19T21:57:19.720Z,22.25
2018-06-19T22:00:44.085Z,21.84
2018-06-19T22:04:08.722Z,21.62
2018-06-19T22:07:33.948Z,21.64
2018-06-19T22:10:58.639Z,21.89
2018-06-19T22:14:23.241Z,21.48
2018-06-19T22:17:48.967Z,21.43
2018-06-19T22:21:13.680Z,21.61
2018-06-19T22:24:38.326Z,21.48
2018-06-19T22:28:03.174Z,21.45
2018-06-19T22:31:27.912Z,21.50
2018-06-19T22:34:53.421Z,21.19
2018-06-19T22:38:18.095Z,21.29
2018-06-19T22:41:42.734Z,21.15
2018-06-19T22:45:07.684Z,21.10
2018-06-19T22:48:32.447Z,20.99
2018-06-19T22:51:57.066Z,20.98
2018-06-19T22:55:21.854Z,20.86
2018-06-19T22:58:47.467Z,20.86
2018-06-19T23:02:12.171Z,20.73
2018-06-19T23:05:37.468Z,20.74
2018-06-19T23:09:02.288Z,20.52
2018-06-19T23:12:26.976Z,20.71
2018-06-19T23:15:51.645Z,20.85
2018-06-19T23:19:16.320Z,20.50
2018-06-19T23:22:40.978Z,20.46
2018-06-19T23:26:05.599Z,20.64
2018-06-19T23:29:30.236Z,20.56
2018-06-19T23:32:54.849Z,21.01
2018-06-19T23:36:19.636Z,20.80
2018-06-19T23:39:44.220Z,20.34
2018-06-19T23:43:08.815Z,20.59
2018-06-19T23:46:33.472Z,20.47
2018-06-19T23:49:58.170Z,20.51
2018-06-19T23:53:22.880Z,20.27
2018-06-19T23:56:47.532Z,20.16
